BAM Airport (Battle Mountain) Information

FAA: BAM - ICAO: KBAM

BAM Airport Location

State Nevada
County Lander
City Battle Mountain
BAM Airport is 3 miles southeast of Battle Mountain, NV.
Latitude 40-35-56.6000N
Longitude 116-52-27.6000W
Elevation 4,536ft

KBAM Airport METARs

METAR KBAM 242355Z AUTO 10003KT 10SM SCT070 BKN075 OVC090 12/12 A2962 RMK AO1
Altimeter 29.62"
Temperature 12.0°C (53.6°F)
Wind 100° at 3KT
Clouds scattered at 7,000ft broken at 7,500ft overcast at 9,000ft
Visibility 10.0mi
Time observed: 2021-10-24T23:55:00Z

BAM Airport Details

Status Operational
Activation February 1944
Ownership Public
Usage Public
Chart SALT LAKE CITY
ATC on-site No
Beacon schedule sunset-sunrise
Beacon color clear green

BAM Airport Contacts

Owner LANDER COUNTY
Owner address 50 STATE ROUTE 305, BATTLE MOUNTAIN, NV 89820
Owner phone 775-635-2885
Manager DARYLL LIGHTNER
Manager address 9509 LARGES COURT, LINCOLN, NE 68512
Manager phone 402-610-3500

BAM Airport (Battle Mountain) Radio Frequencies

BAM (Airport) Radio Frequencies

UNICOM 122.8
Common traffic advisory frequency (CTAF) 122.8